Time;durP1;ratioP1;P1;durP2;ratioP2;P2;SDS_P1;SDS_P2;PMS_P1;PMS_P2;Temp;Humidity;BMP_temperature;BMP_pressure;BME280_temperature;BME280_humidity;BME280_pressure;Samples;Min_cycle;Max_cycle;Signal;HPM_P1;HPM_P2
2022/01/14 00:00:15;;;;;;;17.03;15.33;;;;;21.30;102557.00;;;;2088022;28;20289;-65
2022/01/14 00:01:16;;;;;;;16.03;14.43;;;;;21.30;102519.00;;;;2087748;28;20215;-65
2022/01/14 00:02:16;;;;;;;16.30;14.23;;;;;21.30;102545.00;;;;2088074;28;20205;-65
2022/01/14 00:03:17;;;;;;;16.07;14.40;;;;;21.30;102543.00;;;;2088351;28;20266;-65
2022/01/14 00:04:17;;;;;;;16.27;14.50;;;;;21.30;102544.00;;;;2088228;28;20582;-65
2022/01/14 00:05:17;;;;;;;15.63;14.03;;;;;21.30;102550.00;;;;2088852;28;20629;-65
2022/01/14 00:06:18;;;;;;;16.03;14.33;;;;;21.20;102548.00;;;;2085065;28;20220;-65
2022/01/14 00:07:18;;;;;;;16.00;14.30;;;;;21.20;102523.00;;;;2088587;28;20753;-65
2022/01/14 00:08:19;;;;;;;15.50;13.90;;;;;21.30;102550.00;;;;2088741;28;20227;-65
2022/01/14 00:09:19;;;;;;;17.60;15.80;;;;;21.20;102544.00;;;;2088622;28;20231;-65
2022/01/14 00:10:20;;;;;;;16.60;14.77;;;;;21.20;102541.00;;;;2088655;28;20451;-65
2022/01/14 00:11:20;;;;;;;14.43;12.90;;;;;21.20;102542.00;;;;2088569;28;20278;-65
2022/01/14 00:12:26;;;;;;;14.87;13.27;;;;;21.20;102539.00;;;;2088506;28;20228;-65
2022/01/14 00:14:45;;;;;;;14.30;12.90;;;;;21.20;102546.00;;;;2088658;28;20209;-65
2022/01/14 00:15:45;;;;;;;14.93;13.43;;;;;21.20;102543.00;;;;2088642;28;20212;-65
2022/01/14 00:16:45;;;;;;;16.90;14.47;;;;;21.20;102538.00;;;;2088657;28;20223;-65
2022/01/14 00:17:46;;;;;;;14.40;12.90;;;;;21.20;102536.00;;;;2087822;28;20220;-65
2022/01/14 00:18:46;;;;;;;15.20;13.60;;;;;21.20;102542.00;;;;2087908;28;20635;-65
2022/01/14 00:19:46;;;;;;;16.17;13.63;;;;;21.20;102540.00;;;;2088669;28;20869;-65
2022/01/14 00:20:47;;;;;;;15.10;13.60;;;;;21.10;102539.00;;;;2088397;28;20232;-65
2022/01/14 00:21:47;;;;;;;14.30;12.80;;;;;21.10;102534.00;;;;2088643;28;20260;-65
2022/01/14 00:22:48;;;;;;;14.73;13.23;;;;;21.10;102539.00;;;;2088465;28;20220;-65
2022/01/14 00:23:52;;;;;;;14.93;13.43;;;;;21.10;102540.00;;;;2088544;28;20280;-65
2022/01/14 00:32:54;;;;;;;15.25;13.73;;;;;21.10;102535.00;;;;2085242;28;20205;-65
2022/01/14 00:33:54;;;;;;;13.98;12.57;;;;;21.10;102536.00;;;;2085841;28;20278;-65
2022/01/14 00:34:54;;;;;;;15.60;14.00;;;;;21.10;102531.00;;;;2088125;28;20761;-65
2022/01/14 00:35:55;;;;;;;14.37;12.97;;;;;21.10;102533.00;;;;2088083;28;20761;-65
2022/01/14 00:36:55;;;;;;;14.60;13.10;;;;;21.10;102525.00;;;;2087948;28;20684;-65
2022/01/14 00:37:56;;;;;;;12.67;11.47;;;;;21.10;102535.00;;;;2085846;28;20228;-65
2022/01/14 00:38:56;;;;;;;13.93;12.60;;;;;21.10;102536.00;;;;2088597;28;20209;-65
2022/01/14 00:39:56;;;;;;;13.63;12.37;;;;;21.00;102533.00;;;;2088419;28;20211;-65
2022/01/14 00:40:57;;;;;;;13.33;11.93;;;;;21.10;102536.00;;;;2086879;28;20204;-65
2022/01/14 00:41:57;;;;;;;13.83;12.43;;;;;21.00;102537.00;;;;2088550;28;20216;-64
2022/01/14 00:42:57;;;;;;;15.17;12.77;;;;;21.00;102531.00;;;;2088537;28;20212;-64
2022/01/14 00:44:01;;;;;;;15.13;13.40;;;;;21.00;102534.00;;;;2088347;28;20209;-65
2022/01/14 00:45:06;;;;;;;13.90;12.50;;;;;21.00;102536.00;;;;2088110;28;20662;-65
2022/01/14 00:46:06;;;;;;;15.00;13.43;;;;;21.00;102525.00;;;;2088480;28;20262;-65
2022/01/14 00:47:07;;;;;;;14.80;13.00;;;;;21.00;102522.00;;;;2079274;28;20342;-65
2022/01/14 00:48:07;;;;;;;13.63;12.23;;;;;21.00;102524.00;;;;2079376;28;20619;-65
2022/01/14 00:49:08;;;;;;;13.73;12.33;;;;;21.00;102527.00;;;;2088382;28;20216;-65
2022/01/14 00:50:13;;;;;;;13.73;12.30;;;;;21.00;102523.00;;;;2088334;28;20827;-65
2022/01/14 00:51:13;;;;;;;13.50;12.20;;;;;21.00;102522.00;;;;2087392;28;20212;-65
2022/01/14 00:52:14;;;;;;;14.73;13.10;;;;;21.00;102504.00;;;;2087746;28;20563;-65
2022/01/14 00:53:14;;;;;;;14.03;12.63;;;;;20.90;102518.00;;;;2088371;28;20669;-65
2022/01/14 00:54:15;;;;;;;14.43;13.00;;;;;21.00;102515.00;;;;2088317;28;20583;-65
2022/01/14 00:55:18;;;;;;;14.30;12.90;;;;;21.00;102518.00;;;;2079549;28;20605;-65
2022/01/14 00:59:14;;;;;;;13.20;11.88;;;;;21.00;102476.00;;;;2087652;28;20236;-64
2022/01/14 01:00:07;;;;;;;12.60;11.43;;;;;20.90;102518.00;;;;2086160;28;20668;-65
2022/01/14 01:01:07;;;;;;;14.70;13.23;;;;;20.90;102515.00;;;;2088154;28;20205;-65
2022/01/14 01:02:08;;;;;;;14.03;12.63;;;;;20.90;102527.00;;;;2088339;28;20209;-64
2022/01/14 01:03:08;;;;;;;14.00;12.60;;;;;20.90;102526.00;;;;2087579;28;20243;-65
2022/01/14 01:04:10;;;;;;;12.83;11.43;;;;;20.90;102529.00;;;;2087705;28;20223;-65
2022/01/14 01:05:12;;;;;;;13.85;12.45;;;;;20.90;102533.00;;;;2088261;28;20259;-65
2022/01/14 01:06:13;;;;;;;13.70;12.40;;;;;20.90;102523.00;;;;2088335;28;20213;-65
2022/01/14 01:07:14;;;;;;;12.70;11.50;;;;;20.90;102524.00;;;;2079351;28;20284;-65
2022/01/14 01:08:20;;;;;;;14.40;12.15;;;;;20.90;102519.00;;;;2071281;28;20218;-65
2022/01/14 01:09:23;;;;;;;13.10;11.70;;;;;20.90;102526.00;;;;2080116;28;20213;-66
2022/01/14 01:10:24;;;;;;;14.88;13.38;;;;;20.90;102527.00;;;;2087490;28;20384;-65
2022/01/14 01:11:29;;;;;;;13.70;12.30;;;;;20.90;102522.00;;;;2088318;28;20988;-65
2022/01/14 01:12:35;;;;;;;14.25;12.85;;;;;20.90;102524.00;;;;2088225;28;20455;-65
2022/01/14 01:13:41;;;;;;;15.98;12.90;;;;;20.90;102516.00;;;;2088128;28;20213;-65
2022/01/14 01:14:57;;;;;;;12.70;11.43;;;;;20.80;102519.00;;;;2088205;28;20684;-65
2022/01/14 01:15:57;;;;;;;13.50;12.30;;;;;20.80;102519.00;;;;2088342;28;20550;-65
2022/01/14 01:16:58;;;;;;;13.80;12.40;;;;;20.90;102523.00;;;;2088095;28;20239;-65
2022/01/14 01:17:58;;;;;;;14.20;12.10;;;;;20.90;102532.00;;;;2088139;28;20221;-65
2022/01/14 01:18:58;;;;;;;13.67;12.47;;;;;20.90;102536.00;;;;2088251;28;20244;-65
2022/01/14 01:20:00;;;;;;;13.53;12.23;;;;;20.90;102514.00;;;;2088099;28;20278;-65
2022/01/14 01:21:01;;;;;;;13.60;12.30;;;;;20.90;102511.00;;;;2087934;28;20274;-65
2022/01/14 01:22:01;;;;;;;13.38;11.98;;;;;20.90;102524.00;;;;2088142;28;20211;-65
2022/01/14 01:23:03;;;;;;;13.53;12.10;;;;;20.90;102513.00;;;;2088113;28;20284;-65
2022/01/14 01:24:04;;;;;;;14.00;12.70;;;;;20.90;102515.00;;;;2088100;28;20307;-65
2022/01/14 01:25:05;;;;;;;13.37;12.00;;;;;20.80;102515.00;;;;2088085;28;20229;-65
2022/01/14 01:26:13;;;;;;;13.10;11.80;;;;;20.80;102510.00;;;;2088123;28;20216;-65
2022/01/14 01:27:16;;;;;;;13.02;11.73;;;;;20.80;102520.00;;;;2087267;28;20448;-65
2022/01/14 01:28:16;;;;;;;12.50;11.20;;;;;20.80;102515.00;;;;2087221;28;20655;-65
2022/01/14 01:31:35;;;;;;;13.05;11.65;;;;;20.80;102519.00;;;;2084465;28;20292;-65
2022/01/14 01:32:35;;;;;;;14.77;13.18;;;;;20.80;102521.00;;;;2088095;28;20217;-65
2022/01/14 01:33:36;;;;;;;12.90;11.70;;;;;20.80;102520.00;;;;2088071;28;20221;-65
2022/01/14 01:34:36;;;;;;;12.70;11.40;;;;;20.80;102511.00;;;;2088004;28;20233;-65
2022/01/14 01:35:36;;;;;;;13.97;12.53;;;;;20.80;102518.00;;;;2087442;28;20254;-65
2022/01/14 01:36:37;;;;;;;14.23;12.50;;;;;20.80;102516.00;;;;2087316;28;20595;-65
2022/01/14 01:37:38;;;;;;;13.83;12.30;;;;;20.80;102514.00;;;;2086833;28;20642;-66
2022/01/14 01:38:38;;;;;;;13.37;11.97;;;;;20.80;102520.00;;;;2086847;28;20501;-65
2022/01/14 01:39:38;;;;;;;12.90;11.40;;;;;20.70;102518.00;;;;2087963;28;20209;-66
2022/01/14 01:40:39;;;;;;;14.17;12.67;;;;;20.80;102520.00;;;;2087198;28;20213;-66
2022/01/14 01:41:41;;;;;;;14.70;12.13;;;;;20.80;102514.00;;;;2087359;28;20235;-65
2022/01/14 01:42:43;;;;;;;12.85;11.60;;;;;20.70;102517.00;;;;2086969;28;20291;-65
2022/01/14 01:43:45;;;;;;;13.55;12.25;;;;;20.70;102519.00;;;;2078498;28;20217;-66
2022/01/14 01:44:47;;;;;;;14.00;12.60;;;;;20.70;102462.00;;;;2078825;28;20268;-65
2022/01/14 01:45:49;;;;;;;16.08;12.02;;;;;20.70;102513.00;;;;2086613;28;20212;-65
2022/01/14 01:46:50;;;;;;;13.30;11.90;;;;;20.70;102517.00;;;;2087551;28;20593;-65
2022/01/14 01:47:52;;;;;;;12.30;11.10;;;;;20.70;102513.00;;;;2087490;28;20231;-65
2022/01/14 01:48:52;;;;;;;13.30;11.95;;;;;20.70;102518.00;;;;2087111;28;20463;-65
2022/01/14 01:49:53;;;;;;;13.40;12.10;;;;;20.70;102505.00;;;;2087288;28;20240;-65
2022/01/14 01:50:53;;;;;;;13.10;11.70;;;;;20.70;102517.00;;;;2087799;28;20228;-65
2022/01/14 01:51:54;;;;;;;13.40;12.10;;;;;20.70;102520.00;;;;2088125;28;20447;-65
2022/01/14 01:52:54;;;;;;;13.10;11.80;;;;;20.70;102508.00;;;;2088016;28;20228;-65
2022/01/14 01:53:55;;;;;;;13.47;11.87;;;;;20.70;102525.00;;;;2087342;28;20254;-65
2022/01/14 01:54:55;;;;;;;13.07;11.70;;;;;20.70;102508.00;;;;2087131;28;20234;-66
2022/01/14 01:55:56;;;;;;;13.50;11.67;;;;;20.70;102501.00;;;;2087153;28;20304;-65
2022/01/14 01:56:57;;;;;;;13.38;11.20;;;;;20.70;102523.00;;;;2087044;28;20221;-65
2022/01/14 01:57:57;;;;;;;13.50;12.13;;;;;20.70;102520.00;;;;2087984;28;20287;-65
2022/01/14 01:58:58;;;;;;;12.90;11.60;;;;;20.70;102531.00;;;;2087999;28;20213;-65
2022/01/14 01:59:58;;;;;;;14.23;12.00;;;;;20.70;102526.00;;;;2088050;28;20204;-65
2022/01/14 02:00:58;;;;;;;14.40;12.17;;;;;20.70;102534.00;;;;2087727;28;20205;-66
2022/01/14 02:01:59;;;;;;;13.53;11.13;;;;;20.70;102534.00;;;;2087966;28;20258;-65
2022/01/14 02:03:00;;;;;;;13.27;11.90;;;;;20.70;102519.00;;;;2087775;28;20209;-66
2022/01/14 02:04:00;;;;;;;13.20;11.63;;;;;20.70;102535.00;;;;2078996;28;20608;-65
2022/01/14 02:05:00;;;;;;;12.80;11.33;;;;;20.70;102529.00;;;;2079000;28;20210;-65
2022/01/14 02:06:01;;;;;;;14.40;12.97;;;;;20.70;102530.00;;;;2087376;28;20283;-65
2022/01/14 02:07:02;;;;;;;12.30;11.07;;;;;20.70;102533.00;;;;2087822;28;20239;-66
2022/01/14 02:08:02;;;;;;;14.23;12.80;;;;;20.70;102530.00;;;;2087864;28;20700;-65
2022/01/14 02:09:03;;;;;;;14.57;12.50;;;;;20.70;102519.00;;;;2087982;28;20244;-65
2022/01/14 02:10:04;;;;;;;12.73;11.40;;;;;20.70;102518.00;;;;2087873;28;20209;-65
2022/01/14 02:11:04;;;;;;;12.80;11.40;;;;;20.70;102528.00;;;;2087656;28;20236;-65
2022/01/14 02:12:09;;;;;;;13.50;11.73;;;;;20.60;102524.00;;;;2087974;28;20258;-65
2022/01/14 02:13:11;;;;;;;14.80;13.20;;;;;20.60;102521.00;;;;2078847;28;20215;-65
2022/01/14 02:14:28;;;;;;;14.90;12.27;;;;;20.60;102516.00;;;;2079340;28;20209;-65
2022/01/14 02:17:46;;;;;;;13.50;12.20;;;;;20.60;102518.00;;;;2081525;28;20236;-65
2022/01/14 02:19:24;;;;;;;12.95;11.57;;;;;20.60;102514.00;;;;2084621;28;20204;-65
2022/01/14 02:23:07;;;;;;;14.70;12.05;;;;;20.60;102515.00;;;;2091256;28;20216;-65
2022/01/14 02:24:20;;;;;;;14.25;11.77;;;;;20.60;102511.00;;;;2086713;28;20305;-65
2022/01/14 02:25:29;;;;;;;13.77;12.18;;;;;20.60;102515.00;;;;2085380;28;20213;-65
2022/01/14 02:26:29;;;;;;;14.63;12.70;;;;;20.60;102522.00;;;;2084856;28;20224;-65
2022/01/14 02:27:29;;;;;;;13.87;12.40;;;;;20.60;102505.00;;;;2087263;28;20209;-65
2022/01/14 02:28:30;;;;;;;13.30;11.90;;;;;20.60;102520.00;;;;2087837;28;20209;-65
2022/01/14 02:29:30;;;;;;;13.40;12.10;;;;;20.60;102517.00;;;;2087664;28;20330;-65
2022/01/14 02:30:31;;;;;;;13.03;11.73;;;;;20.60;102519.00;;;;2087484;28;20208;-65
2022/01/14 02:31:31;;;;;;;14.10;12.60;;;;;20.60;102492.00;;;;2087984;28;20745;-65
2022/01/14 02:32:31;;;;;;;13.97;12.47;;;;;20.60;102516.00;;;;2087246;28;20233;-64
2022/01/14 02:33:31;;;;;;;13.93;12.50;;;;;20.60;102512.00;;;;2087115;28;20223;-65
2022/01/14 02:34:32;;;;;;;15.23;12.37;;;;;20.60;102516.00;;;;2083722;28;20212;-65
2022/01/14 02:35:32;;;;;;;13.47;12.07;;;;;20.60;102505.00;;;;2087719;28;20208;-65
2022/01/14 02:36:32;;;;;;;14.23;12.30;;;;;20.60;102505.00;;;;2087854;28;20220;-65
2022/01/14 02:37:33;;;;;;;13.30;11.90;;;;;20.60;102507.00;;;;2081221;28;20220;-65
2022/01/14 02:38:33;;;;;;;13.60;11.87;;;;;20.50;102504.00;;;;2087083;28;20215;-65
2022/01/14 02:39:33;;;;;;;13.47;12.10;;;;;20.60;102506.00;;;;2087722;28;20217;-65
2022/01/14 02:40:34;;;;;;;13.63;12.23;;;;;20.60;102504.00;;;;2087530;28;20213;-65
2022/01/14 02:41:35;;;;;;;13.40;11.93;;;;;20.50;102500.00;;;;2087821;28;20263;-65
2022/01/14 02:42:35;;;;;;;13.63;12.23;;;;;20.50;102505.00;;;;2087719;28;20221;-65
2022/01/14 02:43:36;;;;;;;13.33;11.90;;;;;20.50;102504.00;;;;2087740;28;20463;-65
2022/01/14 02:44:36;;;;;;;13.07;11.77;;;;;20.50;102505.00;;;;2087509;28;20209;-65
2022/01/14 02:45:36;;;;;;;14.10;12.10;;;;;20.60;102498.00;;;;2087063;28;20213;-65
2022/01/14 02:46:41;;;;;;;17.27;13.80;;;;;20.50;102500.00;;;;2087022;28;20209;-65
2022/01/14 02:47:42;;;;;;;14.55;13.05;;;;;20.50;102499.00;;;;2087723;28;20216;-65
2022/01/14 02:48:42;;;;;;;14.73;13.23;;;;;20.50;102496.00;;;;2087832;28;20596;-65
2022/01/14 02:49:43;;;;;;;12.43;11.13;;;;;20.60;102484.00;;;;2087799;28;20879;-65
2022/01/14 02:50:55;;;;;;;16.40;13.30;;;;;20.60;102485.00;;;;2087208;28;20691;-65
2022/01/14 02:51:56;;;;;;;15.40;12.57;;;;;20.50;102488.00;;;;2088676;28;20217;-65
2022/01/14 02:53:01;;;;;;;13.70;12.23;;;;;20.50;102491.00;;;;2089008;28;20619;-65
2022/01/14 02:54:16;;;;;;;15.45;13.32;;;;;20.50;102485.00;;;;2089169;28;20451;-65
2022/01/14 02:55:19;;;;;;;14.82;12.68;;;;;20.50;102496.00;;;;2085967;28;20209;-65
2022/01/14 02:56:19;;;;;;;14.25;12.80;;;;;20.50;102495.00;;;;2088512;28;20628;-65
2022/01/14 02:57:20;;;;;;;16.80;12.93;;;;;20.50;102492.00;;;;2088368;28;20213;-65
2022/01/14 02:58:21;;;;;;;13.60;12.20;;;;;20.50;102486.00;;;;2080394;28;20217;-65
2022/01/14 02:59:21;;;;;;;15.13;12.80;;;;;20.50;102497.00;;;;2079659;28;20670;-65
2022/01/14 03:00:26;;;;;;;13.97;11.93;;;;;20.50;102487.00;;;;2089047;28;20451;-66
2022/01/14 03:01:26;;;;;;;13.70;12.27;;;;;20.50;102479.00;;;;2089243;28;20266;-65
2022/01/14 03:02:26;;;;;;;13.50;12.10;;;;;20.50;102482.00;;;;2080457;28;20201;-65
2022/01/14 03:03:28;;;;;;;13.27;11.97;;;;;20.50;102485.00;;;;2080418;28;20206;-65
2022/01/14 03:04:29;;;;;;;13.70;12.40;;;;;20.50;102475.00;;;;2080333;28;20213;-65
2022/01/14 03:05:29;;;;;;;13.80;12.13;;;;;20.50;102489.00;;;;2080140;28;20289;-65
2022/01/14 03:06:30;;;;;;;16.03;12.30;;;;;20.40;102473.00;;;;2085439;28;20205;-65
2022/01/14 03:07:30;;;;;;;13.63;12.33;;;;;20.50;102489.00;;;;2088545;28;20517;-65
2022/01/14 03:08:31;;;;;;;13.70;11.50;;;;;20.50;102485.00;;;;2088578;28;20209;-65
2022/01/14 03:09:32;;;;;;;13.30;11.90;;;;;20.40;102466.00;;;;2089258;28;20216;-65
2022/01/14 03:10:32;;;;;;;13.03;11.60;;;;;20.40;102476.00;;;;2079950;28;20209;-65
2022/01/14 03:11:35;;;;;;;14.23;12.17;;;;;20.40;102472.00;;;;2080106;28;20206;-65
2022/01/14 03:12:35;;;;;;;13.20;11.88;;;;;20.40;102479.00;;;;2080293;28;21261;-65
2022/01/14 03:13:36;;;;;;;14.70;12.90;;;;;20.40;102478.00;;;;2080416;28;20292;-65
2022/01/14 03:14:36;;;;;;;16.13;12.73;;;;;20.40;102484.00;;;;2085621;28;20231;-65
2022/01/14 03:15:37;;;;;;;13.90;11.93;;;;;20.40;102472.00;;;;2089207;28;20208;-65
2022/01/14 03:16:40;;;;;;;16.03;12.60;;;;;20.40;102474.00;;;;2086512;28;20212;-65
2022/01/14 03:17:40;;;;;;;12.98;11.68;;;;;20.40;102479.00;;;;2089167;28;20358;-65
2022/01/14 03:18:45;;;;;;;14.13;12.53;;;;;20.40;102469.00;;;;2087195;28;20704;-66
2022/01/14 03:19:46;;;;;;;13.80;12.40;;;;;20.40;102456.00;;;;2088506;28;20259;-65
2022/01/14 03:20:52;;;;;;;13.60;12.20;;;;;20.40;102463.00;;;;2088917;28;20446;-65
2022/01/14 03:22:05;;;;;;;14.55;11.68;;;;;20.40;102456.00;;;;2086058;28;20231;-65
2022/01/14 03:23:07;;;;;;;14.90;13.43;;;;;20.40;102465.00;;;;2088967;28;20704;-65
2022/01/14 03:24:19;;;;;;;13.77;12.38;;;;;20.40;102468.00;;;;2089181;28;20311;-65
2022/01/14 03:26:58;;;;;;;12.65;11.45;;;;;20.40;102464.00;;;;2062900;28;20227;-65
2022/01/14 03:27:58;;;;;;;13.93;12.43;;;;;20.40;102462.00;;;;2063250;28;20255;-64
2022/01/14 03:28:58;;;;;;;12.70;11.60;;;;;20.40;102460.00;;;;2063247;28;20219;-65
2022/01/14 03:30:00;;;;;;;14.83;13.17;;;;;20.40;102463.00;;;;2063413;28;20280;-65
2022/01/14 03:31:01;;;;;;;13.20;11.93;;;;;20.40;102461.00;;;;2063275;28;20219;-65
2022/01/14 03:32:03;;;;;;;12.80;11.60;;;;;20.40;102451.00;;;;2063462;28;20699;-65
2022/01/14 03:33:03;;;;;;;13.63;12.25;;;;;20.40;102450.00;;;;2074982;28;20214;-65
2022/01/14 03:34:04;;;;;;;16.10;12.17;;;;;20.40;102449.00;;;;2080137;28;20218;-65
2022/01/14 03:35:05;;;;;;;13.80;12.40;;;;;20.30;102456.00;;;;2086865;28;20209;-65
2022/01/14 03:36:05;;;;;;;13.07;11.77;;;;;20.40;102447.00;;;;2088255;28;20240;-66
2022/01/14 03:37:06;;;;;;;13.37;12.07;;;;;20.30;102442.00;;;;2088321;28;20691;-65
2022/01/14 03:38:06;;;;;;;14.13;12.70;;;;;20.40;102450.00;;;;2080087;28;20677;-65
2022/01/14 03:39:06;;;;;;;13.40;12.00;;;;;20.40;102440.00;;;;2080061;28;20217;-65
2022/01/14 03:40:07;;;;;;;14.40;12.17;;;;;20.40;102420.00;;;;2085583;28;20589;-65
2022/01/14 03:41:08;;;;;;;12.50;11.30;;;;;20.40;102441.00;;;;2088063;28;20834;-65
2022/01/14 03:42:08;;;;;;;13.40;12.00;;;;;20.30;102438.00;;;;2088179;28;20492;-65
2022/01/14 03:43:09;;;;;;;13.80;11.80;;;;;20.30;102436.00;;;;2088768;28;20258;-65
2022/01/14 03:44:10;;;;;;;12.60;11.23;;;;;20.30;102436.00;;;;2089076;28;20212;-65
2022/01/14 03:45:11;;;;;;;13.57;12.27;;;;;20.30;102435.00;;;;2087339;28;20217;-65
2022/01/14 03:46:11;;;;;;;13.63;12.33;;;;;20.30;102430.00;;;;2088858;28;20223;-65
2022/01/14 03:47:11;;;;;;;13.40;12.10;;;;;20.30;102425.00;;;;2088975;28;20271;-65
2022/01/14 03:48:12;;;;;;;11.97;10.77;;;;;20.30;102434.00;;;;2088869;28;20216;-65
2022/01/14 03:49:12;;;;;;;13.97;12.10;;;;;20.30;102421.00;;;;2088762;28;20212;-65
2022/01/14 03:50:12;;;;;;;13.43;12.00;;;;;20.30;102423.00;;;;2088469;28;20247;-65
2022/01/14 03:51:13;;;;;;;14.20;11.50;;;;;20.30;102422.00;;;;2088163;28;20213;-65
2022/01/14 03:52:14;;;;;;;13.33;11.93;;;;;20.30;102432.00;;;;2088696;28;20259;-65
2022/01/14 03:53:14;;;;;;;12.60;11.40;;;;;20.30;102433.00;;;;2088507;28;20212;-65
2022/01/14 03:54:14;;;;;;;13.27;11.70;;;;;20.30;102428.00;;;;2088452;28;20463;-65
2022/01/14 03:55:15;;;;;;;13.17;11.70;;;;;20.30;102428.00;;;;2087854;28;20700;-65
2022/01/14 03:56:17;;;;;;;12.57;11.23;;;;;20.30;102421.00;;;;2088372;28;20224;-65
2022/01/14 03:57:17;;;;;;;13.25;11.82;;;;;20.30;102424.00;;;;2088004;28;20245;-65
2022/01/14 03:58:17;;;;;;;14.40;12.90;;;;;20.30;102428.00;;;;2088138;28;20272;-65
2022/01/14 03:59:18;;;;;;;12.93;11.63;;;;;20.30;102422.00;;;;2088890;28;20676;-65
2022/01/14 04:00:18;;;;;;;12.73;11.40;;;;;20.30;102427.00;;;;2088723;28;20209;-65
2022/01/14 04:01:19;;;;;;;12.70;11.40;;;;;20.30;102427.00;;;;2087789;28;20217;-65
2022/01/14 04:02:20;;;;;;;12.75;11.40;;;;;20.30;102432.00;;;;2088042;28;20205;-65
2022/01/14 04:03:20;;;;;;;12.73;11.53;;;;;20.30;102404.00;;;;2088854;28;20397;-65
2022/01/14 04:04:20;;;;;;;12.33;11.13;;;;;20.30;102432.00;;;;2088744;28;20212;-65
2022/01/14 04:05:21;;;;;;;12.80;11.50;;;;;20.30;102436.00;;;;2088889;28;20264;-65
2022/01/14 04:06:21;;;;;;;12.47;11.27;;;;;20.30;102444.00;;;;2088696;28;20243;-65
2022/01/14 04:07:21;;;;;;;11.70;10.60;;;;;20.30;102420.00;;;;2088878;28;20231;-65
2022/01/14 04:08:22;;;;;;;12.10;11.00;;;;;20.20;102425.00;;;;2088668;28;20229;-65
2022/01/14 04:09:22;;;;;;;12.20;10.90;;;;;20.20;102425.00;;;;2088818;28;20267;-65
2022/01/14 04:10:23;;;;;;;12.00;10.57;;;;;20.30;102428.00;;;;2088523;28;20216;-65
2022/01/14 04:11:23;;;;;;;12.87;11.27;;;;;20.20;102420.00;;;;2088545;28;20228;-65
2022/01/14 04:12:43;;;;;;;12.20;11.00;;;;;20.10;102434.00;;;;2088021;28;20212;-65
2022/01/14 04:15:47;;;;;;;12.80;11.50;;;;;20.20;102434.00;;;;2088110;28;20216;-65
2022/01/14 04:16:47;;;;;;;13.33;11.93;;;;;20.20;102430.00;;;;2084401;28;20244;-65
2022/01/14 04:17:47;;;;;;;12.73;11.43;;;;;20.20;102437.00;;;;2087868;28;20486;-65
2022/01/14 04:18:48;;;;;;;13.07;11.80;;;;;20.20;102439.00;;;;2088667;28;21247;-65
2022/01/14 04:19:48;;;;;;;12.00;10.83;;;;;20.20;102434.00;;;;2088624;28;20723;-65
2022/01/14 04:20:49;;;;;;;12.67;11.37;;;;;20.20;102437.00;;;;2088404;28;20221;-65
2022/01/14 04:21:50;;;;;;;11.27;10.18;;;;;20.20;102430.00;;;;2079576;28;20221;-65
2022/01/14 04:22:51;;;;;;;12.60;10.90;;;;;20.20;102353.00;;;;2079728;28;20324;-65
2022/01/14 04:23:51;;;;;;;12.95;11.65;;;;;20.20;102435.00;;;;2088627;28;20288;-65
2022/01/14 04:24:51;;;;;;;11.90;10.70;;;;;20.20;102435.00;;;;2088509;28;20220;-65
2022/01/14 04:25:53;;;;;;;14.00;11.27;;;;;20.20;102431.00;;;;2088557;28;20217;-65
2022/01/14 04:26:53;;;;;;;12.90;11.23;;;;;20.20;102434.00;;;;2087856;28;20216;-65
2022/01/14 04:27:54;;;;;;;12.63;11.07;;;;;20.20;102421.00;;;;2087625;28;20232;-65
2022/01/14 04:28:54;;;;;;;12.07;10.60;;;;;20.20;102436.00;;;;2088606;28;20217;-65
2022/01/14 04:29:54;;;;;;;12.60;11.47;;;;;20.20;102437.00;;;;2088624;28;20697;-65
2022/01/14 04:30:56;;;;;;;12.20;11.10;;;;;20.20;102442.00;;;;2088118;28;20706;-65
2022/01/14 04:31:56;;;;;;;12.30;11.10;;;;;20.20;102443.00;;;;2088746;28;20722;-65
2022/01/14 04:32:57;;;;;;;12.07;10.87;;;;;20.20;102441.00;;;;2088534;28;20219;-65
2022/01/14 04:33:58;;;;;;;12.60;11.27;;;;;20.20;102422.00;;;;2088543;28;20212;-65
2022/01/14 04:34:58;;;;;;;12.40;11.27;;;;;20.20;102440.00;;;;2087876;28;20232;-65
2022/01/14 04:35:59;;;;;;;12.43;11.13;;;;;20.20;102442.00;;;;2087917;28;20263;-65
2022/01/14 04:36:59;;;;;;;12.07;10.97;;;;;20.20;102437.00;;;;2087740;28;20217;-65
2022/01/14 04:37:59;;;;;;;12.40;11.10;;;;;20.20;102429.00;;;;2088445;28;20213;-65
2022/01/14 04:39:00;;;;;;;12.80;11.60;;;;;20.20;102454.00;;;;2088623;28;20240;-65
2022/01/14 04:40:00;;;;;;;11.73;10.63;;;;;20.20;102453.00;;;;2088596;28;20787;-65
2022/01/14 04:41:01;;;;;;;11.17;10.07;;;;;20.20;102453.00;;;;2088310;28;20227;-65
2022/01/14 04:42:01;;;;;;;11.77;10.57;;;;;20.20;102455.00;;;;2088619;28;20248;-65
2022/01/14 04:43:02;;;;;;;12.27;11.07;;;;;20.20;102458.00;;;;2088259;28;20209;-65
2022/01/14 04:44:03;;;;;;;12.57;10.97;;;;;20.10;102464.00;;;;2086751;28;20217;-64
2022/01/14 04:45:04;;;;;;;12.98;11.68;;;;;20.10;102432.00;;;;2088369;28;20300;-65
2022/01/14 04:47:29;;;;;;;12.95;11.65;;;;;20.20;102440.00;;;;2087456;28;20224;-65
2022/01/14 04:48:31;;;;;;;11.98;10.88;;;;;20.20;102458.00;;;;2085430;28;20715;-65
2022/01/14 04:49:31;;;;;;;12.77;11.48;;;;;20.10;102437.00;;;;2087937;28;20269;-65
2022/01/14 04:50:32;;;;;;;11.50;10.40;;;;;20.20;102450.00;;;;2088162;28;20630;-65
2022/01/14 04:51:32;;;;;;;12.07;10.87;;;;;20.20;102450.00;;;;2088437;28;20649;-65
2022/01/14 04:52:32;;;;;;;13.30;11.57;;;;;20.10;102444.00;;;;2088319;28;20579;-65
2022/01/14 04:53:33;;;;;;;13.27;11.97;;;;;20.10;102446.00;;;;2087521;28;20213;-65
2022/01/14 04:54:34;;;;;;;13.38;11.98;;;;;20.20;102444.00;;;;2087455;28;20608;-65
2022/01/14 04:55:35;;;;;;;12.13;10.87;;;;;20.10;102440.00;;;;2088445;28;20220;-65
2022/01/14 04:56:35;;;;;;;12.53;11.03;;;;;20.10;102444.00;;;;2088100;28;21029;-65
2022/01/14 04:57:35;;;;;;;12.93;11.63;;;;;20.10;102439.00;;;;2087306;28;20580;-65
2022/01/14 04:58:36;;;;;;;13.03;11.73;;;;;20.10;102448.00;;;;2088506;28;20639;-65
2022/01/14 04:59:36;;;;;;;12.50;11.30;;;;;20.20;102448.00;;;;2088028;28;20235;-65
2022/01/14 05:00:38;;;;;;;12.37;11.20;;;;;20.10;102432.00;;;;2088093;28;20587;-65
2022/01/14 05:01:38;;;;;;;13.02;11.70;;;;;20.10;102448.00;;;;2088412;28;20217;-65
2022/01/14 05:02:39;;;;;;;12.73;11.53;;;;;20.10;102447.00;;;;2088423;28;20703;-65
2022/01/14 05:03:39;;;;;;;12.77;11.50;;;;;20.10;102434.00;;;;2088322;28;20731;-65
2022/01/14 05:04:40;;;;;;;12.40;11.10;;;;;20.10;102435.00;;;;2087674;28;20676;-65
2022/01/14 05:05:44;;;;;;;13.10;11.75;;;;;20.10;102431.00;;;;2087377;28;20215;-65
2022/01/14 05:06:49;;;;;;;12.15;10.95;;;;;20.10;102442.00;;;;2088084;28;20219;-65
2022/01/14 05:07:51;;;;;;;12.98;11.68;;;;;20.10;102441.00;;;;2088277;28;20217;-65
2022/01/14 05:08:51;;;;;;;13.40;12.00;;;;;20.10;102430.00;;;;2088075;28;20213;-65
2022/01/14 05:10:08;;;;;;;13.73;12.37;;;;;20.10;102437.00;;;;2088312;28;20229;-65
2022/01/14 05:12:17;;;;;;;14.55;13.05;;;;;20.10;102434.00;;;;2085398;28;20266;-65
2022/01/14 05:13:18;;;;;;;13.33;12.03;;;;;20.10;102443.00;;;;2087722;28;20225;-65
2022/01/14 05:14:18;;;;;;;13.83;12.10;;;;;20.10;102436.00;;;;2088088;28;20283;-65
2022/01/14 05:15:19;;;;;;;14.73;12.97;;;;;20.10;102429.00;;;;2088276;28;20204;-65
2022/01/14 05:16:19;;;;;;;14.30;12.80;;;;;20.00;102439.00;;;;2088131;28;20216;-65
2022/01/14 05:17:19;;;;;;;13.17;11.70;;;;;20.00;102405.00;;;;2088207;28;20588;-65
2022/01/14 05:18:20;;;;;;;14.90;13.30;;;;;20.00;102423.00;;;;2087527;28;20204;-65
2022/01/14 05:19:20;;;;;;;12.73;11.53;;;;;20.00;102437.00;;;;2087538;28;20232;-65
2022/01/14 05:20:20;;;;;;;14.43;12.97;;;;;20.00;102436.00;;;;2088091;28;20231;-65
2022/01/14 05:21:21;;;;;;;14.80;13.30;;;;;20.00;102433.00;;;;2087885;28;20213;-65
2022/01/14 05:22:21;;;;;;;15.17;12.67;;;;;20.00;102449.00;;;;2087134;28;20247;-65